sensor_id;sensor_type;location;lat;lon;timestamp;temperature;humidity
51908;DHT22;39320;53.214;6.556;2022-12-13T00:01:28;0.60;99.90
51908;DHT22;39320;53.214;6.556;2022-12-13T00:03:56;0.60;99.90
51908;DHT22;39320;53.214;6.556;2022-12-13T00:06:22;0.60;99.90
51908;DHT22;39320;53.214;6.556;2022-12-13T00:08:48;1.10;99.90
51908;DHT22;39320;53.214;6.556;2022-12-13T00:11:14;0.60;99.90
51908;DHT22;39320;53.214;6.556;2022-12-13T00:13:41;0.50;99.90
51908;DHT22;39320;53.214;6.556;2022-12-13T00:16:10;1.40;99.90
51908;DHT22;39320;53.214;6.556;2022-12-13T00:18:37;0.50;99.90
51908;DHT22;39320;53.214;6.556;2022-12-13T00:21:04;0.60;99.90
51908;DHT22;39320;53.214;6.556;2022-12-13T00:23:31;0.50;99.90
51908;DHT22;39320;53.214;6.556;2022-12-13T00:26:02;0.40;99.90
51908;DHT22;39320;53.214;6.556;2022-12-13T00:28:28;0.80;99.90
51908;DHT22;39320;53.214;6.556;2022-12-13T00:30:59;0.40;99.90
51908;DHT22;39320;53.214;6.556;2022-12-13T00:33:25;0.40;99.90
51908;DHT22;39320;53.214;6.556;2022-12-13T00:35:51;0.40;99.90
51908;DHT22;39320;53.214;6.556;2022-12-13T00:38:20;0.50;99.90
51908;DHT22;39320;53.214;6.556;2022-12-13T00:40:46;0.40;99.90
51908;DHT22;39320;53.214;6.556;2022-12-13T00:43:12;1.60;99.90
51908;DHT22;39320;53.214;6.556;2022-12-13T00:45:40;1.60;99.90
51908;DHT22;39320;53.214;6.556;2022-12-13T00:48:06;0.30;99.90
51908;DHT22;39320;53.214;6.556;2022-12-13T00:50:33;0.30;99.90
51908;DHT22;39320;53.214;6.556;2022-12-13T00:52:59;0.40;99.90
51908;DHT22;39320;53.214;6.556;2022-12-13T00:55:28;0.40;99.90
51908;DHT22;39320;53.214;6.556;2022-12-13T00:57:54;0.30;99.90
51908;DHT22;39320;53.214;6.556;2022-12-13T01:00:20;0.30;99.90
51908;DHT22;39320;53.214;6.556;2022-12-13T01:02:46;0.70;99.90
51908;DHT22;39320;53.214;6.556;2022-12-13T01:05:12;0.50;99.90
51908;DHT22;39320;53.214;6.556;2022-12-13T01:07:40;0.30;99.90
51908;DHT22;39320;53.214;6.556;2022-12-13T01:10:15;0.30;99.90
51908;DHT22;39320;53.214;6.556;2022-12-13T01:12:41;1.30;99.90
51908;DHT22;39320;53.214;6.556;2022-12-13T01:15:07;0.30;99.90
51908;DHT22;39320;53.214;6.556;2022-12-13T01:17:34;0.30;99.90
51908;DHT22;39320;53.214;6.556;2022-12-13T01:20:00;0.30;99.90
51908;DHT22;39320;53.214;6.556;2022-12-13T01:22:26;0.30;99.90
51908;DHT22;39320;53.214;6.556;2022-12-13T01:24:51;0.40;99.90
51908;DHT22;39320;53.214;6.556;2022-12-13T01:27:17;0.30;99.90
51908;DHT22;39320;53.214;6.556;2022-12-13T01:29:43;0.40;99.90
51908;DHT22;39320;53.214;6.556;2022-12-13T01:32:08;0.30;99.90
51908;DHT22;39320;53.214;6.556;2022-12-13T01:34:34;0.40;99.90
51908;DHT22;39320;53.214;6.556;2022-12-13T01:37:00;0.40;99.90
51908;DHT22;39320;53.214;6.556;2022-12-13T01:39:26;0.40;99.90
51908;DHT22;39320;53.214;6.556;2022-12-13T01:41:53;0.30;99.90
51908;DHT22;39320;53.214;6.556;2022-12-13T01:47:42;0.40;99.90
51908;DHT22;39320;53.214;6.556;2022-12-13T01:50:16;0.40;99.90
51908;DHT22;39320;53.214;6.556;2022-12-13T01:52:44;0.40;99.90
51908;DHT22;39320;53.214;6.556;2022-12-13T01:55:11;0.40;99.90
51908;DHT22;39320;53.214;6.556;2022-12-13T01:57:41;0.70;99.90
51908;DHT22;39320;53.214;6.556;2022-12-13T02:00:08;0.30;99.90
51908;DHT22;39320;53.214;6.556;2022-12-13T02:02:36;0.30;99.90
51908;DHT22;39320;53.214;6.556;2022-12-13T02:05:10;0.50;99.90
51908;DHT22;39320;53.214;6.556;2022-12-13T02:07:39;0.30;99.90
51908;DHT22;39320;53.214;6.556;2022-12-13T02:10:06;0.30;99.90
51908;DHT22;39320;53.214;6.556;2022-12-13T02:12:35;0.20;99.90
51908;DHT22;39320;53.214;6.556;2022-12-13T02:15:13;0.20;99.90
51908;DHT22;39320;53.214;6.556;2022-12-13T02:23:43;0.10;99.90
51908;DHT22;39320;53.214;6.556;2022-12-13T02:34:33;0.10;99.90
51908;DHT22;39320;53.214;6.556;2022-12-13T02:37:16;0.00;99.90
51908;DHT22;39320;53.214;6.556;2022-12-13T02:39:57;0.00;99.90
51908;DHT22;39320;53.214;6.556;2022-12-13T02:42:30;0.00;99.90
51908;DHT22;39320;53.214;6.556;2022-12-13T02:45:04;0.00;99.90
51908;DHT22;39320;53.214;6.556;2022-12-13T02:47:31;0.10;99.90
51908;DHT22;39320;53.214;6.556;2022-12-13T02:50:01;0.10;99.90
51908;DHT22;39320;53.214;6.556;2022-12-13T02:52:30;0.00;99.90
51908;DHT22;39320;53.214;6.556;2022-12-13T02:54:57;0.00;99.90
51908;DHT22;39320;53.214;6.556;2022-12-13T02:57:30;0.00;99.90
51908;DHT22;39320;53.214;6.556;2022-12-13T03:02:57;0.10;99.90
51908;DHT22;39320;53.214;6.556;2022-12-13T03:12:01;0.00;99.90
51908;DHT22;39320;53.214;6.556;2022-12-13T03:17:42;0.00;99.90
51908;DHT22;39320;53.214;6.556;2022-12-13T03:20:09;0.00;99.90
51908;DHT22;39320;53.214;6.556;2022-12-13T03:22:39;0.00;99.90
51908;DHT22;39320;53.214;6.556;2022-12-13T03:25:05;0.00;99.90
51908;DHT22;39320;53.214;6.556;2022-12-13T03:27:31;0.00;99.90
51908;DHT22;39320;53.214;6.556;2022-12-13T03:29:57;0.00;99.90
51908;DHT22;39320;53.214;6.556;2022-12-13T03:32:24;0.00;99.90
51908;DHT22;39320;53.214;6.556;2022-12-13T03:34:50;-0.10;99.90
51908;DHT22;39320;53.214;6.556;2022-12-13T03:37:15;-0.10;99.90
51908;DHT22;39320;53.214;6.556;2022-12-13T03:39:41;0.00;99.90
51908;DHT22;39320;53.214;6.556;2022-12-13T03:42:07;-0.10;99.90
51908;DHT22;39320;53.214;6.556;2022-12-13T03:44:35;-0.10;99.90
51908;DHT22;39320;53.214;6.556;2022-12-13T03:47:01;-0.10;99.90
51908;DHT22;39320;53.214;6.556;2022-12-13T03:49:26;-0.10;99.90
51908;DHT22;39320;53.214;6.556;2022-12-13T03:51:52;0.20;99.90
51908;DHT22;39320;53.214;6.556;2022-12-13T03:54:18;-0.20;99.90
51908;DHT22;39320;53.214;6.556;2022-12-13T03:56:43;-0.20;99.90
51908;DHT22;39320;53.214;6.556;2022-12-13T03:59:09;-0.20;99.90
51908;DHT22;39320;53.214;6.556;2022-12-13T04:01:35;-0.30;99.90
51908;DHT22;39320;53.214;6.556;2022-12-13T04:04:00;-0.40;99.90
51908;DHT22;39320;53.214;6.556;2022-12-13T04:06:26;-0.30;99.90
51908;DHT22;39320;53.214;6.556;2022-12-13T04:08:52;-0.30;99.90
51908;DHT22;39320;53.214;6.556;2022-12-13T04:11:18;0.20;99.90
51908;DHT22;39320;53.214;6.556;2022-12-13T04:14:02;0.00;99.90
51908;DHT22;39320;53.214;6.556;2022-12-13T04:16:28;0.50;99.90
51908;DHT22;39320;53.214;6.556;2022-12-13T04:18:54;-0.30;99.90
51908;DHT22;39320;53.214;6.556;2022-12-13T04:21:19;-0.30;99.90
51908;DHT22;39320;53.214;6.556;2022-12-13T04:23:45;-0.30;99.90
51908;DHT22;39320;53.214;6.556;2022-12-13T04:26:11;-0.30;99.90
51908;DHT22;39320;53.214;6.556;2022-12-13T04:28:37;-0.30;99.90
51908;DHT22;39320;53.214;6.556;2022-12-13T04:31:03;-0.40;99.90
51908;DHT22;39320;53.214;6.556;2022-12-13T04:33:28;-0.40;99.90
51908;DHT22;39320;53.214;6.556;2022-12-13T04:35:57;-0.40;99.90
51908;DHT22;39320;53.214;6.556;2022-12-13T04:38:22;-0.60;99.90
51908;DHT22;39320;53.214;6.556;2022-12-13T04:40:48;-0.40;99.90
51908;DHT22;39320;53.214;6.556;2022-12-13T04:43:14;-0.40;99.90
51908;DHT22;39320;53.214;6.556;2022-12-13T04:45:40;-0.30;99.90
51908;DHT22;39320;53.214;6.556;2022-12-13T04:48:06;-0.30;99.90
51908;DHT22;39320;53.214;6.556;2022-12-13T04:50:32;0.20;99.90
51908;DHT22;39320;53.214;6.556;2022-12-13T04:52:58;-0.30;99.90
51908;DHT22;39320;53.214;6.556;2022-12-13T04:55:24;-0.20;99.90
51908;DHT22;39320;53.214;6.556;2022-12-13T04:57:49;-0.20;99.90
51908;DHT22;39320;53.214;6.556;2022-12-13T05:00:15;-0.20;99.90
51908;DHT22;39320;53.214;6.556;2022-12-13T05:02:41;-0.20;99.90
51908;DHT22;39320;53.214;6.556;2022-12-13T05:05:08;-0.20;99.90
51908;DHT22;39320;53.214;6.556;2022-12-13T05:07:34;-0.20;99.90
51908;DHT22;39320;53.214;6.556;2022-12-13T05:10:00;-0.20;99.90
51908;DHT22;39320;53.214;6.556;2022-12-13T05:12:26;-0.20;99.90
51908;DHT22;39320;53.214;6.556;2022-12-13T05:14:52;-0.20;99.90
51908;DHT22;39320;53.214;6.556;2022-12-13T05:17:18;-0.20;99.90
51908;DHT22;39320;53.214;6.556;2022-12-13T05:19:44;-0.20;99.90
51908;DHT22;39320;53.214;6.556;2022-12-13T05:22:10;-0.20;99.90
51908;DHT22;39320;53.214;6.556;2022-12-13T05:24:42;-0.20;99.90
51908;DHT22;39320;53.214;6.556;2022-12-13T05:27:10;-0.20;99.90
51908;DHT22;39320;53.214;6.556;2022-12-13T05:29:36;-0.20;99.90
51908;DHT22;39320;53.214;6.556;2022-12-13T05:32:02;-0.20;99.90
51908;DHT22;39320;53.214;6.556;2022-12-13T05:34:28;-0.20;99.90
51908;DHT22;39320;53.214;6.556;2022-12-13T05:36:54;-0.10;99.90
51908;DHT22;39320;53.214;6.556;2022-12-13T05:39:20;-0.20;99.90
51908;DHT22;39320;53.214;6.556;2022-12-13T05:41:46;-0.10;99.90
51908;DHT22;39320;53.214;6.556;2022-12-13T05:44:11;-0.20;99.90
51908;DHT22;39320;53.214;6.556;2022-12-13T05:46:39;-0.20;99.90
51908;DHT22;39320;53.214;6.556;2022-12-13T05:49:05;-0.20;99.90
51908;DHT22;39320;53.214;6.556;2022-12-13T05:51:30;-0.20;99.90
51908;DHT22;39320;53.214;6.556;2022-12-13T05:53:56;-0.10;99.90
51908;DHT22;39320;53.214;6.556;2022-12-13T05:56:22;-0.10;99.90
51908;DHT22;39320;53.214;6.556;2022-12-13T05:58:47;-0.10;99.90
51908;DHT22;39320;53.214;6.556;2022-12-13T06:01:14;-0.10;99.90
51908;DHT22;39320;53.214;6.556;2022-12-13T06:03:41;-0.10;99.90
51908;DHT22;39320;53.214;6.556;2022-12-13T06:06:08;-0.10;99.90
51908;DHT22;39320;53.214;6.556;2022-12-13T06:08:35;-0.10;99.90
51908;DHT22;39320;53.214;6.556;2022-12-13T06:11:02;-0.10;99.90
51908;DHT22;39320;53.214;6.556;2022-12-13T06:13:28;-0.20;99.90
51908;DHT22;39320;53.214;6.556;2022-12-13T06:15:54;-0.20;99.90
51908;DHT22;39320;53.214;6.556;2022-12-13T06:18:24;-0.30;99.90
51908;DHT22;39320;53.214;6.556;2022-12-13T06:20:58;-0.30;99.90
51908;DHT22;39320;53.214;6.556;2022-12-13T06:23:25;-0.20;99.90
51908;DHT22;39320;53.214;6.556;2022-12-13T06:25:51;-0.30;99.90
51908;DHT22;39320;53.214;6.556;2022-12-13T06:28:17;-0.30;99.90
51908;DHT22;39320;53.214;6.556;2022-12-13T06:30:43;0.10;99.90
51908;DHT22;39320;53.214;6.556;2022-12-13T06:33:09;-0.30;99.90
51908;DHT22;39320;53.214;6.556;2022-12-13T06:35:36;-0.30;99.90
51908;DHT22;39320;53.214;6.556;2022-12-13T06:38:02;-0.30;99.90
51908;DHT22;39320;53.214;6.556;2022-12-13T06:40:29;-0.30;99.90
51908;DHT22;39320;53.214;6.556;2022-12-13T06:42:55;-0.30;99.90
51908;DHT22;39320;53.214;6.556;2022-12-13T06:45:23;-0.30;99.90
51908;DHT22;39320;53.214;6.556;2022-12-13T06:47:49;-0.40;99.90
51908;DHT22;39320;53.214;6.556;2022-12-13T06:50:14;-0.30;99.90
51908;DHT22;39320;53.214;6.556;2022-12-13T06:52:40;-0.20;99.90
51908;DHT22;39320;53.214;6.556;2022-12-13T06:55:06;-0.30;99.90
51908;DHT22;39320;53.214;6.556;2022-12-13T06:57:32;-0.40;99.90
51908;DHT22;39320;53.214;6.556;2022-12-13T06:59:59;-0.40;99.90
51908;DHT22;39320;53.214;6.556;2022-12-13T07:02:25;-0.40;99.90
51908;DHT22;39320;53.214;6.556;2022-12-13T07:04:54;0.50;99.90
51908;DHT22;39320;53.214;6.556;2022-12-13T07:07:19;-0.40;99.90
51908;DHT22;39320;53.214;6.556;2022-12-13T07:09:45;-0.30;99.90
51908;DHT22;39320;53.214;6.556;2022-12-13T07:12:11;-0.20;99.90
51908;DHT22;39320;53.214;6.556;2022-12-13T07:14:36;-0.40;99.90
51908;DHT22;39320;53.214;6.556;2022-12-13T07:17:02;-0.30;99.90
51908;DHT22;39320;53.214;6.556;2022-12-13T07:19:28;-0.30;99.90
51908;DHT22;39320;53.214;6.556;2022-12-13T07:21:53;-0.30;99.90
51908;DHT22;39320;53.214;6.556;2022-12-13T07:24:19;-0.40;99.90
51908;DHT22;39320;53.214;6.556;2022-12-13T07:26:46;-0.30;99.90
51908;DHT22;39320;53.214;6.556;2022-12-13T07:29:11;-0.50;99.90
51908;DHT22;39320;53.214;6.556;2022-12-13T07:31:37;0.00;99.90
51908;DHT22;39320;53.214;6.556;2022-12-13T07:34:03;-0.50;99.90
51908;DHT22;39320;53.214;6.556;2022-12-13T07:36:29;-0.60;99.90
51908;DHT22;39320;53.214;6.556;2022-12-13T07:38:56;-0.60;99.90
51908;DHT22;39320;53.214;6.556;2022-12-13T07:41:23;-0.60;99.90
51908;DHT22;39320;53.214;6.556;2022-12-13T07:43:50;-0.60;99.90
51908;DHT22;39320;53.214;6.556;2022-12-13T07:46:15;-0.70;99.90
51908;DHT22;39320;53.214;6.556;2022-12-13T07:48:41;-0.70;99.90
51908;DHT22;39320;53.214;6.556;2022-12-13T07:51:09;-0.50;99.90
51908;DHT22;39320;53.214;6.556;2022-12-13T07:53:39;-0.70;99.90
51908;DHT22;39320;53.214;6.556;2022-12-13T07:56:10;-0.80;99.90
51908;DHT22;39320;53.214;6.556;2022-12-13T07:58:36;-0.80;99.90
51908;DHT22;39320;53.214;6.556;2022-12-13T08:01:05;-0.80;99.90
51908;DHT22;39320;53.214;6.556;2022-12-13T08:03:32;-0.70;99.90
51908;DHT22;39320;53.214;6.556;2022-12-13T08:06:16;-0.70;99.90
51908;DHT22;39320;53.214;6.556;2022-12-13T08:08:43;-0.40;99.90
51908;DHT22;39320;53.214;6.556;2022-12-13T08:11:12;-0.80;99.90
51908;DHT22;39320;53.214;6.556;2022-12-13T08:13:38;-0.80;99.90
51908;DHT22;39320;53.214;6.556;2022-12-13T08:16:07;-0.80;99.90
51908;DHT22;39320;53.214;6.556;2022-12-13T08:18:35;-0.80;99.90
51908;DHT22;39320;53.214;6.556;2022-12-13T08:21:11;-0.70;99.90
51908;DHT22;39320;53.214;6.556;2022-12-13T08:23:37;-0.40;99.90
51908;DHT22;39320;53.214;6.556;2022-12-13T08:26:04;-0.70;99.90
51908;DHT22;39320;53.214;6.556;2022-12-13T08:28:31;-0.70;99.90
51908;DHT22;39320;53.214;6.556;2022-12-13T08:31:09;-0.60;99.90
51908;DHT22;39320;53.214;6.556;2022-12-13T08:33:39;-0.50;99.90
51908;DHT22;39320;53.214;6.556;2022-12-13T08:36:12;-0.60;99.90
51908;DHT22;39320;53.214;6.556;2022-12-13T08:38:40;-0.60;99.90
51908;DHT22;39320;53.214;6.556;2022-12-13T08:41:06;-0.60;99.90
51908;DHT22;39320;53.214;6.556;2022-12-13T08:43:33;-0.20;99.90
51908;DHT22;39320;53.214;6.556;2022-12-13T08:45:59;-0.60;99.90
51908;DHT22;39320;53.214;6.556;2022-12-13T08:48:24;-0.50;99.90
51908;DHT22;39320;53.214;6.556;2022-12-13T08:50:50;-0.50;99.90
51908;DHT22;39320;53.214;6.556;2022-12-13T08:53:16;-0.50;99.90
51908;DHT22;39320;53.214;6.556;2022-12-13T08:55:42;-0.40;99.90
51908;DHT22;39320;53.214;6.556;2022-12-13T08:58:08;-0.40;99.90
51908;DHT22;39320;53.214;6.556;2022-12-13T09:00:35;-0.40;99.90
51908;DHT22;39320;53.214;6.556;2022-12-13T09:03:01;-0.30;99.90
51908;DHT22;39320;53.214;6.556;2022-12-13T09:05:30;-0.30;99.90
51908;DHT22;39320;53.214;6.556;2022-12-13T09:07:58;-0.30;99.90
51908;DHT22;39320;53.214;6.556;2022-12-13T09:10:24;0.10;99.90
51908;DHT22;39320;53.214;6.556;2022-12-13T09:12:50;-0.30;99.90
51908;DHT22;39320;53.214;6.556;2022-12-13T09:15:16;-0.30;99.90
51908;DHT22;39320;53.214;6.556;2022-12-13T09:17:42;-0.20;99.90
51908;DHT22;39320;53.214;6.556;2022-12-13T09:20:09;-0.20;99.90
51908;DHT22;39320;53.214;6.556;2022-12-13T09:22:36;-0.20;99.90
51908;DHT22;39320;53.214;6.556;2022-12-13T09:25:04;-0.30;99.90
51908;DHT22;39320;53.214;6.556;2022-12-13T09:27:31;-0.20;99.90
51908;DHT22;39320;53.214;6.556;2022-12-13T09:29:57;-0.30;99.90
51908;DHT22;39320;53.214;6.556;2022-12-13T09:32:23;-0.20;99.90
51908;DHT22;39320;53.214;6.556;2022-12-13T09:34:49;-0.30;99.90
51908;DHT22;39320;53.214;6.556;2022-12-13T09:37:15;-0.20;99.90
51908;DHT22;39320;53.214;6.556;2022-12-13T09:39:41;0.50;99.90
51908;DHT22;39320;53.214;6.556;2022-12-13T09:42:18;-0.20;99.90
51908;DHT22;39320;53.214;6.556;2022-12-13T09:44:51;0.40;99.90
51908;DHT22;39320;53.214;6.556;2022-12-13T09:47:30;-0.30;99.90
51908;DHT22;39320;53.214;6.556;2022-12-13T09:49:58;-0.30;99.90
51908;DHT22;39320;53.214;6.556;2022-12-13T09:52:28;-0.30;99.90
51908;DHT22;39320;53.214;6.556;2022-12-13T09:54:56;-0.20;99.90
51908;DHT22;39320;53.214;6.556;2022-12-13T09:57:26;-0.20;99.90
51908;DHT22;39320;53.214;6.556;2022-12-13T09:59:52;-0.20;99.90
51908;DHT22;39320;53.214;6.556;2022-12-13T10:02:28;-0.30;99.90
51908;DHT22;39320;53.214;6.556;2022-12-13T10:05:14;-0.20;99.90
51908;DHT22;39320;53.214;6.556;2022-12-13T10:07:40;-0.20;99.90
51908;DHT22;39320;53.214;6.556;2022-12-13T10:10:08;-0.20;99.90
51908;DHT22;39320;53.214;6.556;2022-12-13T10:12:36;-0.20;99.90
51908;DHT22;39320;53.214;6.556;2022-12-13T10:15:03;-0.10;99.90
51908;DHT22;39320;53.214;6.556;2022-12-13T10:17:36;-0.10;99.90
51908;DHT22;39320;53.214;6.556;2022-12-13T10:20:04;-0.10;99.90
51908;DHT22;39320;53.214;6.556;2022-12-13T10:22:30;-0.10;99.90
51908;DHT22;39320;53.214;6.556;2022-12-13T10:24:58;-0.10;99.90
51908;DHT22;39320;53.214;6.556;2022-12-13T10:27:44;0.00;99.90
51908;DHT22;39320;53.214;6.556;2022-12-13T10:30:15;0.00;99.90
51908;DHT22;39320;53.214;6.556;2022-12-13T10:33:02;0.00;99.90
51908;DHT22;39320;53.214;6.556;2022-12-13T10:38:00;0.10;99.90
51908;DHT22;39320;53.214;6.556;2022-12-13T10:43:17;0.20;99.90
51908;DHT22;39320;53.214;6.556;2022-12-13T10:48:32;0.30;99.90
51908;DHT22;39320;53.214;6.556;2022-12-13T10:51:16;0.40;99.90
51908;DHT22;39320;53.214;6.556;2022-12-13T10:53:51;0.40;99.90
51908;DHT22;39320;53.214;6.556;2022-12-13T10:56:19;0.40;99.90
51908;DHT22;39320;53.214;6.556;2022-12-13T10:58:47;0.80;99.90
51908;DHT22;39320;53.214;6.556;2022-12-13T11:01:21;0.60;99.90
51908;DHT22;39320;53.214;6.556;2022-12-13T11:04:05;0.60;99.90
51908;DHT22;39320;53.214;6.556;2022-12-13T11:06:45;0.70;99.90
51908;DHT22;39320;53.214;6.556;2022-12-13T11:09:31;1.20;99.90
51908;DHT22;39320;53.214;6.556;2022-12-13T11:12:00;0.70;99.90
51908;DHT22;39320;53.214;6.556;2022-12-13T11:14:31;0.80;99.90
51908;DHT22;39320;53.214;6.556;2022-12-13T11:17:04;1.30;99.90
51908;DHT22;39320;53.214;6.556;2022-12-13T11:19:44;1.20;99.90
51908;DHT22;39320;53.214;6.556;2022-12-13T11:24:55;1.10;99.90
51908;DHT22;39320;53.214;6.556;2022-12-13T11:30:23;1.20;99.90
51908;DHT22;39320;53.214;6.556;2022-12-13T11:35:31;1.40;99.90
51908;DHT22;39320;53.214;6.556;2022-12-13T11:40:41;1.60;99.90
51908;DHT22;39320;53.214;6.556;2022-12-13T11:43:27;1.60;99.90
51908;DHT22;39320;53.214;6.556;2022-12-13T11:45:59;1.60;99.90
51908;DHT22;39320;53.214;6.556;2022-12-13T11:48:52;1.60;99.90
51908;DHT22;39320;53.214;6.556;2022-12-13T11:51:49;1.60;99.90
51908;DHT22;39320;53.214;6.556;2022-12-13T11:54:31;1.70;99.90
51908;DHT22;39320;53.214;6.556;2022-12-13T11:56:59;1.80;99.90
51908;DHT22;39320;53.214;6.556;2022-12-13T11:59:40;1.90;99.90
51908;DHT22;39320;53.214;6.556;2022-12-13T12:02:21;1.90;99.90
51908;DHT22;39320;53.214;6.556;2022-12-13T12:04:55;1.90;99.90
51908;DHT22;39320;53.214;6.556;2022-12-13T12:07:35;2.00;99.90
51908;DHT22;39320;53.214;6.556;2022-12-13T12:13:00;2.10;99.90
51908;DHT22;39320;53.214;6.556;2022-12-13T12:15:32;2.20;99.90
51908;DHT22;39320;53.214;6.556;2022-12-13T12:18:00;2.20;99.90
51908;DHT22;39320;53.214;6.556;2022-12-13T12:21:07;2.40;99.90
51908;DHT22;39320;53.214;6.556;2022-12-13T12:23:43;2.40;99.90
51908;DHT22;39320;53.214;6.556;2022-12-13T12:26:16;2.50;99.90
51908;DHT22;39320;53.214;6.556;2022-12-13T12:34:12;2.60;99.90
51908;DHT22;39320;53.214;6.556;2022-12-13T12:39:42;2.70;99.90
51908;DHT22;39320;53.214;6.556;2022-12-13T12:42:26;2.80;99.90
51908;DHT22;39320;53.214;6.556;2022-12-13T12:45:02;3.00;99.90
51908;DHT22;39320;53.214;6.556;2022-12-13T12:47:59;3.10;99.90
51908;DHT22;39320;53.214;6.556;2022-12-13T12:55:50;4.00;99.90
51908;DHT22;39320;53.214;6.556;2022-12-13T13:03:25;4.40;99.90
51908;DHT22;39320;53.214;6.556;2022-12-13T13:06:01;4.50;99.90
51908;DHT22;39320;53.214;6.556;2022-12-13T13:11:07;5.20;99.90
51908;DHT22;39320;53.214;6.556;2022-12-13T13:13:34;5.40;99.90
51908;DHT22;39320;53.214;6.556;2022-12-13T13:16:00;5.60;99.90
51908;DHT22;39320;53.214;6.556;2022-12-13T13:18:49;5.90;99.90
51908;DHT22;39320;53.214;6.556;2022-12-13T13:22:14;5.90;99.90
51908;DHT22;39320;53.214;6.556;2022-12-13T13:24:30;5.90;99.90
51908;DHT22;39320;53.214;6.556;2022-12-13T13:29:36;5.90;99.90
51908;DHT22;39320;53.214;6.556;2022-12-13T13:34:45;5.50;99.90
51908;DHT22;39320;53.214;6.556;2022-12-13T13:42:23;4.70;99.90
51908;DHT22;39320;53.214;6.556;2022-12-13T13:52:36;3.90;99.90
51908;DHT22;39320;53.214;6.556;2022-12-13T13:55:27;3.70;99.90
51908;DHT22;39320;53.214;6.556;2022-12-13T13:58:28;3.50;99.90
51908;DHT22;39320;53.214;6.556;2022-12-13T14:06:38;3.30;99.90
51908;DHT22;39320;53.214;6.556;2022-12-13T14:15:45;2.90;99.90
51908;DHT22;39320;53.214;6.556;2022-12-13T14:21:31;2.70;99.90
51908;DHT22;39320;53.214;6.556;2022-12-13T14:24:17;2.70;99.90
51908;DHT22;39320;53.214;6.556;2022-12-13T14:27:00;2.60;99.90
51908;DHT22;39320;53.214;6.556;2022-12-13T14:29:40;2.50;99.90
51908;DHT22;39320;53.214;6.556;2022-12-13T14:34:54;2.40;99.90
51908;DHT22;39320;53.214;6.556;2022-12-13T14:37:31;2.40;99.90
51908;DHT22;39320;53.214;6.556;2022-12-13T14:39:59;2.40;99.90
51908;DHT22;39320;53.214;6.556;2022-12-13T14:42:28;2.50;99.90
51908;DHT22;39320;53.214;6.556;2022-12-13T14:44:55;2.70;99.90
51908;DHT22;39320;53.214;6.556;2022-12-13T14:47:40;2.90;99.90
51908;DHT22;39320;53.214;6.556;2022-12-13T14:50:06;2.40;99.90
51908;DHT22;39320;53.214;6.556;2022-12-13T14:52:36;2.40;99.90
51908;DHT22;39320;53.214;6.556;2022-12-13T14:55:03;2.40;99.90
51908;DHT22;39320;53.214;6.556;2022-12-13T14:57:31;2.30;99.90
51908;DHT22;39320;53.214;6.556;2022-12-13T14:59:58;2.30;99.90
51908;DHT22;39320;53.214;6.556;2022-12-13T15:02:27;2.30;99.90
51908;DHT22;39320;53.214;6.556;2022-12-13T15:04:55;2.30;99.90
51908;DHT22;39320;53.214;6.556;2022-12-13T15:07:29;2.20;99.90
51908;DHT22;39320;53.214;6.556;2022-12-13T15:10:22;2.20;99.90
51908;DHT22;39320;53.214;6.556;2022-12-13T15:12:47;2.20;99.90
51908;DHT22;39320;53.214;6.556;2022-12-13T15:15:27;2.20;99.90
51908;DHT22;39320;53.214;6.556;2022-12-13T15:20:39;2.20;99.90
51908;DHT22;39320;53.214;6.556;2022-12-13T15:23:34;2.10;99.90
51908;DHT22;39320;53.214;6.556;2022-12-13T15:26:01;1.80;99.90
51908;DHT22;39320;53.214;6.556;2022-12-13T15:28:30;1.90;99.90
51908;DHT22;39320;53.214;6.556;2022-12-13T15:30:58;1.90;99.90
51908;DHT22;39320;53.214;6.556;2022-12-13T15:33:26;1.90;99.90
51908;DHT22;39320;53.214;6.556;2022-12-13T15:36:08;1.90;99.90
51908;DHT22;39320;53.214;6.556;2022-12-13T15:38:38;1.90;99.90
51908;DHT22;39320;53.214;6.556;2022-12-13T15:41:05;2.20;99.90
51908;DHT22;39320;53.214;6.556;2022-12-13T15:43:44;2.20;99.90
51908;DHT22;39320;53.214;6.556;2022-12-13T15:46:10;1.80;99.90
51908;DHT22;39320;53.214;6.556;2022-12-13T15:48:39;1.70;99.90
51908;DHT22;39320;53.214;6.556;2022-12-13T15:53:34;1.90;99.90
51908;DHT22;39320;53.214;6.556;2022-12-13T15:56:01;1.70;99.90
51908;DHT22;39320;53.214;6.556;2022-12-13T15:58:36;1.70;99.90
51908;DHT22;39320;53.214;6.556;2022-12-13T16:01:02;1.70;99.90
51908;DHT22;39320;53.214;6.556;2022-12-13T16:03:43;1.70;99.90
51908;DHT22;39320;53.214;6.556;2022-12-13T16:06:16;1.60;99.90
51908;DHT22;39320;53.214;6.556;2022-12-13T16:08:42;1.60;99.90
51908;DHT22;39320;53.214;6.556;2022-12-13T16:11:14;1.60;99.90
51908;DHT22;39320;53.214;6.556;2022-12-13T16:13:40;1.50;99.90
51908;DHT22;39320;53.214;6.556;2022-12-13T16:16:25;1.70;99.90
51908;DHT22;39320;53.214;6.556;2022-12-13T16:18:59;1.60;99.90
51908;DHT22;39320;53.214;6.556;2022-12-13T16:21:26;1.50;99.90
51908;DHT22;39320;53.214;6.556;2022-12-13T16:23:52;1.50;99.90
51908;DHT22;39320;53.214;6.556;2022-12-13T16:26:24;1.40;99.90
51908;DHT22;39320;53.214;6.556;2022-12-13T16:28:51;1.50;99.90
51908;DHT22;39320;53.214;6.556;2022-12-13T16:31:21;1.50;99.90
51908;DHT22;39320;53.214;6.556;2022-12-13T16:33:47;1.40;99.90
51908;DHT22;39320;53.214;6.556;2022-12-13T16:36:13;1.60;99.90
51908;DHT22;39320;53.214;6.556;2022-12-13T16:38:39;1.40;99.90
51908;DHT22;39320;53.214;6.556;2022-12-13T16:41:05;1.40;99.90
51908;DHT22;39320;53.214;6.556;2022-12-13T16:43:33;1.40;99.90
51908;DHT22;39320;53.214;6.556;2022-12-13T16:46:03;1.60;99.90
51908;DHT22;39320;53.214;6.556;2022-12-13T16:48:29;1.40;99.90
51908;DHT22;39320;53.214;6.556;2022-12-13T16:50:55;1.20;99.90
51908;DHT22;39320;53.214;6.556;2022-12-13T16:53:21;1.20;99.90
51908;DHT22;39320;53.214;6.556;2022-12-13T16:55:47;1.50;99.90
51908;DHT22;39320;53.214;6.556;2022-12-13T16:58:16;1.20;99.90
51908;DHT22;39320;53.214;6.556;2022-12-13T17:00:44;1.60;99.90
51908;DHT22;39320;53.214;6.556;2022-12-13T17:03:12;1.20;99.90
51908;DHT22;39320;53.214;6.556;2022-12-13T17:05:40;1.20;99.90
51908;DHT22;39320;53.214;6.556;2022-12-13T17:08:12;1.40;99.90
51908;DHT22;39320;53.214;6.556;2022-12-13T17:10:39;1.20;99.90
51908;DHT22;39320;53.214;6.556;2022-12-13T17:13:05;1.30;99.90
51908;DHT22;39320;53.214;6.556;2022-12-13T17:15:31;1.30;99.90
51908;DHT22;39320;53.214;6.556;2022-12-13T17:17:57;1.60;99.90
51908;DHT22;39320;53.214;6.556;2022-12-13T17:20:23;1.40;99.90
51908;DHT22;39320;53.214;6.556;2022-12-13T17:22:49;1.40;99.90
51908;DHT22;39320;53.214;6.556;2022-12-13T17:25:15;1.40;99.90
51908;DHT22;39320;53.214;6.556;2022-12-13T17:27:42;1.30;99.90
51908;DHT22;39320;53.214;6.556;2022-12-13T17:30:12;1.30;99.90
51908;DHT22;39320;53.214;6.556;2022-12-13T17:32:38;1.30;99.90
51908;DHT22;39320;53.214;6.556;2022-12-13T17:35:04;1.30;99.90
51908;DHT22;39320;53.214;6.556;2022-12-13T17:37:32;1.30;99.90
51908;DHT22;39320;53.214;6.556;2022-12-13T17:39:58;1.40;99.90
51908;DHT22;39320;53.214;6.556;2022-12-13T17:42:23;1.30;99.90
51908;DHT22;39320;53.214;6.556;2022-12-13T17:44:50;1.20;99.90
51908;DHT22;39320;53.214;6.556;2022-12-13T17:47:15;1.20;99.90
51908;DHT22;39320;53.214;6.556;2022-12-13T17:49:41;1.20;99.90